createdAt,value
2022-11-21T00:10:21.302Z,89.9
2022-11-21T00:22:21.850Z,90.9
2022-11-21T00:34:21.199Z,91.2
2022-11-21T00:46:21.194Z,90.6
2022-11-21T00:58:21.287Z,90.7
2022-11-21T01:10:21.293Z,90.8
2022-11-21T01:22:21.192Z,90.7
2022-11-21T01:34:21.308Z,89.7
2022-11-21T01:46:21.198Z,88.6
2022-11-21T01:58:21.262Z,89.1
2022-11-21T02:10:21.190Z,88.5
2022-11-21T02:22:21.195Z,87.3
2022-11-21T02:34:21.303Z,86.2
2022-11-21T02:46:21.198Z,86.6
2022-11-21T02:58:21.188Z,86.6
2022-11-21T03:10:21.280Z,86.4
2022-11-21T03:22:21.303Z,86.9
2022-11-21T03:34:21.271Z,86.2
2022-11-21T03:46:21.190Z,86.4
2022-11-21T03:58:21.306Z,85.7
2022-11-21T04:10:21.292Z,85.8
2022-11-21T04:22:21.276Z,88.5
2022-11-21T04:34:21.310Z,90.2
2022-11-21T04:46:21.193Z,90.0
2022-11-21T04:58:21.299Z,90.5
2022-11-21T05:10:21.277Z,90.7
2022-11-21T05:22:21.311Z,90.9
2022-11-21T05:34:21.205Z,91.5
2022-11-21T05:46:21.195Z,91.9
2022-11-21T05:58:21.275Z,92.3
2022-11-21T06:10:21.247Z,93.0
2022-11-21T06:22:21.287Z,93.5
2022-11-21T06:34:21.247Z,93.3
2022-11-21T06:46:21.189Z,93.8
2022-11-21T06:58:21.304Z,93.5
2022-11-21T07:10:21.209Z,93.3
2022-11-21T07:22:21.255Z,93.3
2022-11-21T07:34:21.298Z,93.5
2022-11-21T07:46:21.193Z,93.7
2022-11-21T07:58:21.289Z,93.8
2022-11-21T08:10:21.251Z,93.7
2022-11-21T08:22:21.192Z,93.5
2022-11-21T08:34:21.289Z,93.0
2022-11-21T08:46:21.199Z,93.4
2022-11-21T08:58:21.197Z,93.6
2022-11-21T09:10:21.301Z,93.6
2022-11-21T09:22:21.272Z,92.0
2022-11-21T09:34:21.217Z,91.4
2022-11-21T09:46:21.208Z,92.0
2022-11-21T09:58:21.267Z,91.9
2022-11-21T10:10:21.304Z,91.5
2022-11-21T10:22:21.200Z,90.6
2022-11-21T10:34:21.258Z,90.4
2022-11-21T10:46:21.363Z,88.1
2022-11-21T10:58:21.302Z,88.4
2022-11-21T11:10:26.958Z,86.9
2022-11-21T11:22:21.250Z,86.4
2022-11-21T11:34:21.224Z,85.1
2022-11-21T11:46:21.189Z,82.5
2022-11-21T11:58:21.195Z,81.4
2022-11-21T12:10:21.260Z,82.2
2022-11-21T12:22:21.314Z,79.4
2022-11-21T12:34:21.287Z,77.7
2022-11-21T12:46:21.194Z,77.3
2022-11-21T12:58:21.195Z,76.5
2022-11-21T13:10:21.314Z,76.0
2022-11-21T13:22:21.280Z,76.3
2022-11-21T13:34:21.398Z,77.8
2022-11-21T13:46:21.192Z,78.0
2022-11-21T13:58:21.282Z,77.9
2022-11-21T14:10:21.285Z,77.3
2022-11-21T14:22:21.200Z,80.3
2022-11-21T14:34:21.195Z,78.0
2022-11-21T14:46:21.195Z,79.5
2022-11-21T14:58:21.396Z,80.6
2022-11-21T15:10:30.183Z,81.6
2022-11-21T15:22:21.205Z,81.8
2022-11-21T15:34:35.399Z,82.0
2022-11-21T15:46:21.191Z,82.3
2022-11-21T15:58:21.192Z,83.2
2022-11-21T16:10:26.207Z,83.4
2022-11-21T16:22:21.191Z,83.4
2022-11-21T16:34:21.259Z,83.6
2022-11-21T16:46:21.201Z,83.8
2022-11-21T16:58:21.310Z,84.0
2022-11-21T17:10:21.194Z,83.5
2022-11-21T17:22:24.600Z,82.7
2022-11-21T17:34:22.498Z,82.5
2022-11-21T17:46:21.203Z,83.2
2022-11-21T17:58:21.310Z,83.8
2022-11-21T18:10:42.343Z,83.9
2022-11-21T18:22:26.293Z,84.0
2022-11-21T18:34:21.313Z,83.7
2022-11-21T18:46:21.254Z,83.6
2022-11-21T18:58:21.202Z,83.7
2022-11-21T19:10:41.966Z,84.0
2022-11-21T19:22:21.308Z,84.7
2022-11-21T19:34:21.211Z,84.5
2022-11-21T19:46:21.197Z,84.5
2022-11-21T19:58:21.296Z,84.2
2022-11-21T20:10:21.303Z,83.5
2022-11-21T20:22:21.194Z,80.9
2022-11-21T20:34:21.214Z,79.8
2022-11-21T20:46:21.444Z,81.9
2022-11-21T20:58:21.191Z,83.9
2022-11-21T21:10:21.293Z,85.3
2022-11-21T21:22:21.247Z,87.7
2022-11-21T21:34:21.312Z,88.2
2022-11-21T21:46:21.191Z,88.5
2022-11-21T21:58:21.204Z,88.5
2022-11-21T22:10:21.279Z,88.2
2022-11-21T22:22:21.196Z,88.3
2022-11-21T22:34:21.192Z,88.4
2022-11-21T22:46:21.206Z,89.2
2022-11-21T22:58:21.250Z,89.4
2022-11-21T23:10:21.360Z,89.4
2022-11-21T23:22:21.188Z,89.6
2022-11-21T23:34:21.201Z,89.7
2022-11-21T23:46:21.196Z,89.9
2022-11-21T23:58:21.310Z,90.1
